Amis Wisdom II — 3FGI2 — position and weather

sailwx.info

Track history (hours):
 
Tides and Currents Weather Stations Pressure Air Temp Water Temp Dewpoint Dewpoint Depression Visibility Wind Speed Wind Dir Waves Ship Positions

Amis Wisdom II

Last reported at 2018-Feb-16 04:02 UTC. Time now 2018-Feb-25 08:08 UTC.
Position S 30°49' E 031°08'.
Warning: this ship's position is 9 days out of date.

Length 200 m; draft 6.3 m.

Type: Cargo ship. MMSI: 357086000.

Date/timePositionNaut miles runAvg speedWind from/ knotsBaromVisibWave heightAir tempDewpointWater temp
2018-Feb-16 04:02S 30°49' E 031°08'515.6
2018-Feb-16 03:44S 30°46' E 031°11'415.4
2018-Feb-16 03:30S 30°43' E 031°14'1315.2
2018-Feb-16 02:41S 30°33' E 031°23'315.4
2018-Feb-16 02:29S 30°31' E 031°25'715.2
2018-Feb-16 02:00S 30°25' E 031°30'915.1
2018-Feb-16 01:26S 30°19' E 031°37'715.0
2018-Feb-16 00:59S 30°14' E 031°42'714.9
2018-Feb-16 00:30S 30°08' E 031°47'714.8
2018-Feb-16 00:00S 30°02' E 031°52'714.4
2018-Feb-15 23:30S 29°57' E 031°57'714.3
2018-Feb-15 22:59S 29°51' E 032°03'2614.1
2018-Feb-15 21:07S 29°30' E 032°22'2313.7
2018-Feb-15 19:27S 29°12' E 032°38'  
Track history (hours):
 
Tides and Currents Weather Stations Pressure Air Temp Water Temp Dewpoint Dewpoint Depression Visibility Wind Speed Wind Dir Waves Ship Positions

Amis Wisdom II

Last reported at 2018-Feb-16 04:02 UTC. Time now 2018-Feb-25 08:08 UTC.
Position S 30°49' E 031°08'.
Warning: this ship's position is 9 days out of date.

Length 200 m; draft 6.3 m.

Type: Cargo ship. MMSI: 357086000.

Date/timePositionNaut miles runAvg speedWind from/ knotsBaromVisibWave heightAir tempDewpointWater temp
2018-Feb-16 04:02S 30°49' E 031°08'515.6
2018-Feb-16 03:44S 30°46' E 031°11'415.4
2018-Feb-16 03:30S 30°43' E 031°14'1315.2
2018-Feb-16 02:41S 30°33' E 031°23'315.4
2018-Feb-16 02:29S 30°31' E 031°25'715.2
2018-Feb-16 02:00S 30°25' E 031°30'915.1
2018-Feb-16 01:26S 30°19' E 031°37'715.0
2018-Feb-16 00:59S 30°14' E 031°42'714.9
2018-Feb-16 00:30S 30°08' E 031°47'714.8
2018-Feb-16 00:00S 30°02' E 031°52'714.4
2018-Feb-15 23:30S 29°57' E 031°57'714.3
2018-Feb-15 22:59S 29°51' E 032°03'2614.1
2018-Feb-15 21:07S 29°30' E 032°22'2313.7
2018-Feb-15 19:27S 29°12' E 032°38'  

Dump ship's entire track history